Salt Flat, Texas
Current Conditions -  °F | °C
As of 9:51 AM on Friday 31 Oct 2014 (Local Time) from KGDP Reporting Station
Clear Clear  
Wind Chill: 55°   Ceiling: Unl
Heat Index: 55°   Visibility: 10mi
Dew Point: 32°   Wind: 33mph
Humidity: 42%   Direction: 60°ENE
Pressure: 30.42"   Gusts: 41mph
Location:  31.33°N, 104.47°W
Report Text: KGDP 311551Z AUTO 06029G36KT 10SM CLR 13/00 A3042 RMK AO2 PK WND 05037/1538 SLP256 T01280000
Loading
Personal Weather Stations






























Interactive Weather Map
Tropical Storm Tracking
New forecast layout! Learn more

10-Day Weather Forecast

Advertisements
Track Severe Weather on mobile